Time;durP1;ratioP1;P1;durP2;ratioP2;P2;SDS_P1;SDS_P2;PMS_P1;PMS_P2;Temp;Humidity;BMP_temperature;BMP_pressure;BME280_temperature;BME280_humidity;BME280_pressure;Samples;Min_cycle;Max_cycle;Signal;HPM_P1;HPM_P2
2022/01/14 00:02:10;;;;;;;28.70;17.63;;;-1.70;99.90;;;;;;5051032;28;20497;-65
2022/01/14 00:04:38;;;;;;;28.37;16.73;;;-1.80;99.90;;;;;;5051434;28;20440;-66
2022/01/14 00:07:05;;;;;;;29.57;15.30;;;-1.70;99.90;;;;;;5051543;28;20454;-66
2022/01/14 00:09:33;;;;;;;25.30;14.90;;;-1.90;99.90;;;;;;5051246;28;20487;-66
2022/01/14 00:12:04;;;;;;;23.37;15.97;;;-1.90;99.90;;;;;;5051595;28;20780;-66
2022/01/14 00:14:40;;;;;;;25.17;16.80;;;-1.80;99.90;;;;;;5051290;28;20607;-66
2022/01/14 00:17:10;;;;;;;31.17;17.13;;;-1.70;99.90;;;;;;5051196;28;20455;-65
2022/01/14 00:19:37;;;;;;;27.37;16.57;;;-1.60;99.90;;;;;;5051341;28;20473;-66
2022/01/14 00:22:09;;;;;;;31.57;15.83;;;-1.60;99.90;;;;;;5050971;28;20506;-66
2022/01/14 00:32:59;;;;;;;29.20;15.97;;;-1.30;99.90;;;;;;5050970;28;20455;-67
2022/01/14 00:35:26;;;;;;;30.33;18.57;;;-1.30;99.90;;;;;;5049785;28;21090;-66
2022/01/14 00:37:53;;;;;;;30.47;17.50;;;-1.20;99.90;;;;;;5050072;28;20457;-66
2022/01/14 00:40:20;;;;;;;27.43;16.83;;;-1.10;99.90;;;;;;5050623;28;20467;-66
2022/01/14 00:42:49;;;;;;;28.37;16.40;;;-1.20;99.90;;;;;;5050866;28;20821;-67
2022/01/14 00:45:18;;;;;;;24.00;14.83;;;-1.10;99.90;;;;;;5050920;28;20841;-67
2022/01/14 00:47:45;;;;;;;21.33;14.70;;;-1.10;99.90;;;;;;5051757;28;20449;-64
2022/01/14 00:50:15;;;;;;;29.20;16.27;;;-1.10;99.90;;;;;;5051948;28;20851;-66
2022/01/14 00:52:43;;;;;;;30.23;16.57;;;-1.10;99.90;;;;;;5050764;28;20453;-65
2022/01/14 00:55:14;;;;;;;28.87;15.17;;;-1.10;99.90;;;;;;5050163;28;20851;-66
2022/01/14 01:00:29;;;;;;;25.87;16.10;;;-1.20;99.90;;;;;;5049721;28;21010;-66
2022/01/14 01:02:56;;;;;;;25.93;16.17;;;-1.10;99.90;;;;;;5049685;28;20489;-67
2022/01/14 01:05:24;;;;;;;30.00;17.73;;;-1.10;99.90;;;;;;5050042;28;20495;-66
2022/01/14 01:08:01;;;;;;;26.40;15.90;;;-1.20;99.90;;;;;;5050142;28;20444;-67
2022/01/14 01:10:29;;;;;;;21.67;13.90;;;-1.10;99.90;;;;;;5050175;28;20471;-65
2022/01/14 01:13:01;;;;;;;28.20;15.70;;;-1.10;99.90;;;;;;5049566;28;20458;-66
2022/01/14 01:15:29;;;;;;;30.27;15.03;;;-1.10;99.90;;;;;;5049848;28;20484;-65
2022/01/14 01:17:56;;;;;;;20.97;14.50;;;-1.10;99.90;;;;;;5049969;28;20453;-66
2022/01/14 01:20:23;;;;;;;20.67;13.53;;;-1.00;99.90;;;;;;5049965;28;20504;-66
2022/01/14 01:22:53;;;;;;;25.67;15.23;;;-1.00;99.90;;;;;;5049953;28;20456;-67
2022/01/14 01:25:24;;;;;;;27.37;15.43;;;-1.00;99.90;;;;;;5049834;28;20560;-68
2022/01/14 01:27:53;;;;;;;20.70;13.77;;;-1.00;99.90;;;;;;5049686;28;20493;-66
2022/01/14 01:30:49;;;;;;;25.50;15.47;;;-1.10;99.90;;;;;;5049625;28;20989;-67
2022/01/14 01:33:17;;;;;;;25.70;13.17;;;-1.10;99.90;;;;;;5049641;28;20457;-66
2022/01/14 01:35:44;;;;;;;21.57;14.47;;;-1.00;99.90;;;;;;5049774;28;20550;-66
2022/01/14 01:38:16;;;;;;;22.03;12.47;;;-1.00;99.90;;;;;;5049333;28;20954;-67
2022/01/14 01:40:44;;;;;;;25.37;13.63;;;-1.10;99.90;;;;;;5049525;28;20881;-66
2022/01/14 01:43:13;;;;;;;25.63;13.97;;;-1.20;99.90;;;;;;5049644;28;20454;-66
2022/01/14 01:45:40;;;;;;;28.33;14.70;;;-1.10;99.90;;;;;;5049608;28;20445;-66
2022/01/14 01:48:07;;;;;;;26.43;15.00;;;-1.00;99.90;;;;;;5049307;28;20458;-67
2022/01/14 01:50:38;;;;;;;27.73;15.33;;;-0.90;99.90;;;;;;5049348;28;20449;-65
2022/01/14 01:53:05;;;;;;;26.70;14.33;;;-0.90;99.90;;;;;;5049387;28;20481;-65
2022/01/14 01:55:33;;;;;;;30.20;14.83;;;-0.90;99.90;;;;;;5049391;28;20835;-65
2022/01/14 01:58:01;;;;;;;25.53;15.30;;;-1.00;99.90;;;;;;5049531;28;20457;-65
2022/01/14 02:00:29;;;;;;;24.50;14.53;;;-1.00;99.90;;;;;;5049430;28;20495;-65
2022/01/14 02:02:58;;;;;;;27.57;15.10;;;-0.90;99.90;;;;;;5048849;28;20515;-66
2022/01/14 02:05:25;;;;;;;23.73;14.43;;;-1.00;99.90;;;;;;5049055;28;20828;-66
2022/01/14 02:07:54;;;;;;;23.00;14.00;;;-1.00;99.90;;;;;;5049302;28;20461;-66
2022/01/14 02:10:22;;;;;;;27.40;14.60;;;-1.00;99.90;;;;;;5048955;28;20551;-66
2022/01/14 02:12:52;;;;;;;25.50;14.60;;;-1.10;99.90;;;;;;5049420;28;20506;-66
2022/01/14 02:15:45;;;;;;;22.10;14.17;;;-1.10;99.90;;;;;;5049002;28;20541;-66
2022/01/14 02:23:47;;;;;;;26.40;15.37;;;-1.10;99.90;;;;;;5048951;28;20435;-66
2022/01/14 02:26:18;;;;;;;25.60;14.57;;;-1.10;99.90;;;;;;5048862;28;20492;-65
2022/01/14 02:28:46;;;;;;;22.63;14.20;;;-1.10;99.90;;;;;;5049050;28;20978;-65
2022/01/14 02:31:14;;;;;;;23.07;12.93;;;-1.00;99.90;;;;;;5049048;28;20448;-66
2022/01/14 02:33:41;;;;;;;28.30;13.17;;;-1.00;99.90;;;;;;5049142;28;20453;-65
2022/01/14 02:36:11;;;;;;;23.97;13.57;;;-1.00;99.90;;;;;;5048603;28;21045;-66
2022/01/14 02:38:38;;;;;;;27.30;15.30;;;-0.90;99.90;;;;;;5048768;28;21030;-67
2022/01/14 02:41:06;;;;;;;27.10;14.60;;;-0.80;99.90;;;;;;5049362;28;20768;-65
2022/01/14 02:43:34;;;;;;;26.53;13.87;;;-1.00;99.90;;;;;;5049261;28;20509;-65
2022/01/14 02:46:01;;;;;;;26.93;14.10;;;-0.70;99.90;;;;;;5049074;28;20441;-65
2022/01/14 02:48:30;;;;;;;27.17;14.47;;;-0.70;99.90;;;;;;5049007;28;20476;-66
2022/01/14 02:51:00;;;;;;;21.77;13.27;;;-0.80;99.90;;;;;;5048626;28;20917;-64
2022/01/14 02:53:43;;;;;;;28.90;14.57;;;-0.80;99.90;;;;;;5048980;28;20552;-66
2022/01/14 02:56:12;;;;;;;21.20;12.03;;;-0.90;99.90;;;;;;5048878;28;20524;-65
2022/01/14 02:58:41;;;;;;;22.20;13.57;;;-1.00;99.90;;;;;;5049336;28;20469;-65
2022/01/14 03:01:11;;;;;;;27.60;16.20;;;-0.90;99.90;;;;;;5052368;28;20538;-65
2022/01/14 03:03:43;;;;;;;20.87;13.30;;;-0.90;99.90;;;;;;5052725;28;20452;-65
2022/01/14 03:06:11;;;;;;;25.60;15.03;;;-0.80;99.90;;;;;;5052279;28;21009;-65
2022/01/14 03:08:39;;;;;;;24.57;13.53;;;-0.60;99.90;;;;;;5052649;28;20477;-65
2022/01/14 03:11:09;;;;;;;22.87;13.47;;;-0.60;99.90;;;;;;5052363;28;20503;-65
2022/01/14 03:13:37;;;;;;;23.50;14.47;;;-0.70;99.90;;;;;;5052354;28;20453;-65
2022/01/14 03:16:05;;;;;;;26.90;14.20;;;-0.80;99.90;;;;;;5051808;28;20926;-65
2022/01/14 03:18:41;;;;;;;25.07;14.60;;;-0.90;99.90;;;;;;5051763;28;20472;-66
2022/01/14 03:21:12;;;;;;;19.73;12.40;;;-0.90;99.90;;;;;;5052230;28;20962;-66
2022/01/14 03:23:46;;;;;;;25.13;15.43;;;-0.80;99.90;;;;;;5052526;28;20965;-65
2022/01/14 03:26:14;;;;;;;25.90;14.73;;;-0.70;99.90;;;;;;5052266;28;20453;-66
2022/01/14 03:28:41;;;;;;;24.23;14.87;;;-0.60;99.90;;;;;;5051783;28;20525;-66
2022/01/14 03:31:08;;;;;;;23.57;13.67;;;-0.60;99.90;;;;;;5051842;28;20450;-66
2022/01/14 03:33:35;;;;;;;26.97;15.00;;;-0.70;99.90;;;;;;5052047;28;20878;-66
2022/01/14 03:36:03;;;;;;;22.47;13.50;;;-0.40;99.90;;;;;;5051908;28;20535;-65
2022/01/14 03:38:30;;;;;;;25.10;14.30;;;-0.40;99.90;;;;;;5052007;28;20470;-65
2022/01/14 03:40:59;;;;;;;25.90;14.87;;;-0.30;99.90;;;;;;5052593;28;20461;-65
2022/01/14 03:43:26;;;;;;;24.07;13.93;;;-0.30;99.90;;;;;;5052586;28;20931;-66
2022/01/14 03:45:53;;;;;;;27.57;12.40;;;-0.30;99.90;;;;;;5051623;28;20462;-66
2022/01/14 03:48:20;;;;;;;21.87;14.27;;;-0.40;99.90;;;;;;5051756;28;20516;-65
2022/01/14 03:50:47;;;;;;;25.73;14.80;;;-0.30;99.90;;;;;;5051674;28;20458;-66
2022/01/14 03:53:15;;;;;;;26.50;12.90;;;-0.30;99.90;;;;;;5051670;28;20465;-65
2022/01/14 03:55:44;;;;;;;23.43;13.87;;;-0.20;99.90;;;;;;5051356;28;20485;-66
2022/01/14 03:58:12;;;;;;;24.33;13.90;;;-0.20;99.90;;;;;;5051547;28;20476;-65
2022/01/14 04:00:39;;;;;;;20.57;12.80;;;-0.40;99.90;;;;;;5051146;28;20471;-66
2022/01/14 04:03:07;;;;;;;31.73;14.40;;;-0.40;99.90;;;;;;5050265;28;20504;-66
2022/01/14 04:05:35;;;;;;;27.83;14.80;;;-0.50;99.90;;;;;;5050187;28;20465;-67
2022/01/14 04:08:03;;;;;;;25.13;14.07;;;-0.50;99.90;;;;;;5050120;28;20454;-65
2022/01/14 04:10:30;;;;;;;27.97;13.33;;;-0.50;99.90;;;;;;5049305;28;20464;-66
2022/01/14 04:13:01;;;;;;;21.70;13.77;;;-0.40;99.90;;;;;;5049768;28;20519;-66
2022/01/14 04:15:41;;;;;;;21.83;13.77;;;-0.40;99.90;;;;;;5050072;28;20543;-67
2022/01/14 04:18:11;;;;;;;23.20;13.10;;;-0.40;99.90;;;;;;5050151;28;20552;-66
2022/01/14 04:20:39;;;;;;;22.40;12.87;;;-0.30;99.90;;;;;;5049773;28;20453;-66
2022/01/14 04:23:07;;;;;;;25.37;15.67;;;-0.50;99.90;;;;;;5049927;28;20526;-65
2022/01/14 04:25:35;;;;;;;25.17;14.57;;;-0.50;99.90;;;;;;5049925;28;20795;-67
2022/01/14 04:28:04;;;;;;;22.67;12.80;;;-0.50;99.90;;;;;;5050017;28;20536;-66
2022/01/14 04:30:33;;;;;;;26.90;13.50;;;-0.50;99.90;;;;;;5050000;28;20492;-65
2022/01/14 04:33:00;;;;;;;23.47;13.70;;;-0.40;99.90;;;;;;5050038;28;20537;-67
2022/01/14 04:35:27;;;;;;;22.23;13.10;;;-0.20;99.90;;;;;;5049670;28;20493;-65
2022/01/14 04:37:55;;;;;;;20.17;13.37;;;-0.20;99.90;;;;;;5049673;28;20843;-65
2022/01/14 04:40:22;;;;;;;23.60;12.37;;;-0.20;99.90;;;;;;5049912;28;20913;-65
2022/01/14 04:42:51;;;;;;;28.50;13.10;;;-0.40;99.90;;;;;;5049461;28;20503;-66
2022/01/14 04:45:29;;;;;;;24.13;14.30;;;-0.30;99.90;;;;;;5049651;28;20876;-65
2022/01/14 04:47:57;;;;;;;24.10;13.63;;;0.00;99.90;;;;;;5049497;28;20448;-66
2022/01/14 04:50:25;;;;;;;25.20;13.90;;;-0.10;99.90;;;;;;5049514;28;20527;-67
2022/01/14 04:52:53;;;;;;;22.97;13.00;;;0.00;99.90;;;;;;5049622;28;20545;-67
2022/01/14 04:55:22;;;;;;;23.47;13.30;;;0.00;99.90;;;;;;5049674;28;20453;-66
2022/01/14 04:57:50;;;;;;;22.60;13.07;;;0.00;99.90;;;;;;5049626;28;20500;-67
2022/01/14 05:00:21;;;;;;;25.07;14.13;;;0.00;99.90;;;;;;5049306;28;20481;-67
2022/01/14 05:02:51;;;;;;;31.30;14.67;;;-0.10;99.90;;;;;;5009999;28;1146161;-65
2022/01/14 05:05:21;;;;;;;22.00;12.83;;;-0.20;99.90;;;;;;5050320;28;20207;-66
2022/01/14 05:07:50;;;;;;;27.57;13.57;;;-0.10;99.90;;;;;;5050229;28;20450;-67
2022/01/14 05:10:25;;;;;;;25.83;14.83;;;0.00;99.90;;;;;;5050035;28;20474;-65
2022/01/14 05:12:52;;;;;;;21.40;14.53;;;-0.10;99.90;;;;;;5049798;28;20964;-65
2022/01/14 05:15:21;;;;;;;21.40;12.63;;;0.00;99.90;;;;;;5050023;28;20461;-65
2022/01/14 05:17:49;;;;;;;26.50;14.00;;;0.10;99.90;;;;;;5049801;28;20486;-66
2022/01/14 05:20:19;;;;;;;26.93;15.17;;;0.20;99.90;;;;;;5050083;28;20466;-66
2022/01/14 05:22:46;;;;;;;24.30;13.70;;;0.10;99.90;;;;;;5049619;28;20461;-66
2022/01/14 05:25:15;;;;;;;26.40;14.20;;;0.30;99.90;;;;;;5049502;28;20942;-69
2022/01/14 05:27:43;;;;;;;26.67;15.80;;;0.40;99.90;;;;;;5049863;28;20484;-67
2022/01/14 05:30:13;;;;;;;21.63;13.50;;;0.30;99.90;;;;;;5049771;28;20994;-67
2022/01/14 05:32:47;;;;;;;25.77;14.23;;;0.20;99.90;;;;;;5049913;28;20865;-67
2022/01/14 05:35:15;;;;;;;21.17;13.90;;;0.20;99.90;;;;;;5049892;28;20751;-66
2022/01/14 05:37:44;;;;;;;22.67;12.80;;;0.20;99.90;;;;;;5049416;28;20554;-66
2022/01/14 05:40:12;;;;;;;26.43;15.33;;;0.00;99.90;;;;;;5049397;28;20865;-76
2022/01/14 05:42:39;;;;;;;22.00;13.00;;;0.00;99.90;;;;;;5049505;28;20512;-67
2022/01/14 05:45:08;;;;;;;24.43;14.33;;;-0.10;99.90;;;;;;5049689;28;20511;-66
2022/01/14 05:47:36;;;;;;;23.93;15.00;;;-0.10;99.90;;;;;;5049895;28;20864;-68
2022/01/14 05:50:04;;;;;;;23.87;13.33;;;0.00;99.90;;;;;;5049292;28;20465;-68
2022/01/14 05:52:31;;;;;;;25.30;14.50;;;-0.10;99.90;;;;;;5049445;28;20826;-69
2022/01/14 05:54:59;;;;;;;22.37;13.63;;;-0.20;99.90;;;;;;5049348;28;20961;-68
2022/01/14 05:57:27;;;;;;;23.57;13.63;;;-0.30;99.90;;;;;;5049296;28;20546;-69
2022/01/14 05:59:54;;;;;;;23.77;15.40;;;-0.30;99.90;;;;;;5049326;28;20552;-68
2022/01/14 06:02:21;;;;;;;22.20;14.10;;;-0.50;99.90;;;;;;5049058;28;20527;-69
2022/01/14 06:04:48;;;;;;;23.83;14.30;;;-0.70;99.90;;;;;;5049065;28;20449;-70
2022/01/14 06:07:15;;;;;;;26.33;14.17;;;-0.70;99.90;;;;;;5049238;28;20893;-68
2022/01/14 06:09:42;;;;;;;27.53;14.17;;;-0.60;99.90;;;;;;5049211;28;20512;-69
2022/01/14 06:12:12;;;;;;;24.23;14.30;;;-0.50;99.90;;;;;;5049235;28;20531;-70
2022/01/14 06:14:39;;;;;;;26.73;17.00;;;-0.50;99.90;;;;;;5049378;28;20799;-71
2022/01/14 06:17:06;;;;;;;24.93;14.50;;;-0.40;99.90;;;;;;5049452;28;20488;-69
2022/01/14 06:19:33;;;;;;;19.13;13.10;;;-0.30;99.90;;;;;;5048917;28;20914;-66
2022/01/14 06:22:00;;;;;;;24.17;13.73;;;-0.30;99.90;;;;;;5049187;28;20456;-66
2022/01/14 06:24:27;;;;;;;21.70;14.37;;;-0.40;99.90;;;;;;5049171;28;20788;-68
2022/01/14 06:26:54;;;;;;;23.77;14.10;;;-0.40;99.90;;;;;;5049230;28;20503;-67
2022/01/14 06:29:23;;;;;;;24.43;14.63;;;-0.40;99.90;;;;;;5048975;28;20866;-65
2022/01/14 06:31:50;;;;;;;29.60;13.77;;;-0.40;99.90;;;;;;5051998;28;20547;-65
2022/01/14 06:34:17;;;;;;;21.23;14.00;;;-0.40;99.90;;;;;;5051270;28;20500;-68
2022/01/14 06:36:44;;;;;;;24.47;13.90;;;-0.40;99.90;;;;;;5052903;28;20489;-66
2022/01/14 06:39:11;;;;;;;23.57;14.70;;;-0.30;99.90;;;;;;5052802;28;20477;-66
2022/01/14 06:41:38;;;;;;;19.43;12.13;;;-0.40;99.90;;;;;;5052891;28;20453;-67
2022/01/14 06:44:06;;;;;;;22.73;13.60;;;-0.30;99.90;;;;;;5052425;28;20458;-67
2022/01/14 06:46:34;;;;;;;23.03;14.63;;;-0.30;99.90;;;;;;5052367;28;20453;-66
2022/01/14 06:49:01;;;;;;;24.20;14.40;;;-0.30;99.90;;;;;;5052667;28;20519;-66
2022/01/14 06:51:28;;;;;;;21.23;11.80;;;-0.20;99.90;;;;;;5052584;28;20460;-66
2022/01/14 06:53:56;;;;;;;22.80;13.00;;;0.00;99.90;;;;;;5052606;28;20522;-66
2022/01/14 06:56:23;;;;;;;20.80;12.03;;;0.10;99.90;;;;;;5052442;28;20862;-66
2022/01/14 06:58:50;;;;;;;19.07;13.20;;;0.20;99.90;;;;;;5052485;28;20474;-66
2022/01/14 07:01:17;;;;;;;22.60;11.50;;;0.20;99.90;;;;;;5052140;28;20571;-65
2022/01/14 07:03:45;;;;;;;22.80;11.70;;;0.30;99.90;;;;;;5052290;28;20442;-66
2022/01/14 07:06:12;;;;;;;21.23;12.27;;;0.50;99.90;;;;;;5052186;28;20985;-65
2022/01/14 07:08:39;;;;;;;21.70;11.70;;;0.50;99.90;;;;;;5052303;28;20473;-66
2022/01/14 07:11:07;;;;;;;24.07;11.03;;;0.60;99.90;;;;;;5052402;28;20508;-66
2022/01/14 07:13:34;;;;;;;20.17;12.10;;;0.60;99.90;;;;;;5052057;28;20454;-65
2022/01/14 07:16:01;;;;;;;19.50;12.10;;;0.80;99.90;;;;;;5052036;28;20452;-65
2022/01/14 07:18:28;;;;;;;18.33;10.90;;;1.00;99.90;;;;;;5051490;28;20526;-65
2022/01/14 07:20:56;;;;;;;18.27;10.90;;;1.10;99.90;;;;;;5051999;28;20505;-66
2022/01/14 07:23:23;;;;;;;17.73;11.60;;;1.00;99.90;;;;;;5052072;28;20513;-65
2022/01/14 07:25:50;;;;;;;20.53;14.10;;;1.00;99.90;;;;;;5052052;28;20463;-66
2022/01/14 07:28:17;;;;;;;22.13;14.00;;;1.10;99.90;;;;;;5052109;28;20569;-66
2022/01/14 07:30:44;;;;;;;17.53;12.43;;;1.20;99.90;;;;;;5051957;28;20458;-69
2022/01/14 07:33:11;;;;;;;22.90;11.20;;;1.40;99.90;;;;;;5051932;28;20806;-68
2022/01/14 07:35:40;;;;;;;19.33;11.57;;;1.40;99.90;;;;;;5051901;28;20453;-66
2022/01/14 07:38:08;;;;;;;23.00;12.00;;;1.60;99.90;;;;;;5051739;28;20490;-66
2022/01/14 07:40:37;;;;;;;21.03;13.63;;;1.80;99.90;;;;;;5051472;28;20939;-69
2022/01/14 07:43:04;;;;;;;23.60;13.20;;;1.80;99.90;;;;;;5051501;28;20450;-69
2022/01/14 07:45:31;;;;;;;19.90;12.40;;;1.70;99.90;;;;;;5051313;28;20504;-70
2022/01/14 07:47:58;;;;;;;25.03;14.40;;;1.80;99.90;;;;;;5051643;28;20455;-70
2022/01/14 07:50:25;;;;;;;19.33;12.40;;;1.90;99.90;;;;;;5051817;28;20479;-69
2022/01/14 07:52:52;;;;;;;20.13;13.33;;;2.10;99.90;;;;;;5051613;28;20462;-69
2022/01/14 07:55:21;;;;;;;23.10;13.33;;;2.20;99.90;;;;;;5051377;28;20483;-69
2022/01/14 07:57:48;;;;;;;21.37;14.23;;;2.40;99.90;;;;;;5051017;28;20492;-69
2022/01/14 08:00:16;;;;;;;28.93;13.93;;;2.40;99.90;;;;;;5051207;28;20485;-69
2022/01/14 08:02:43;;;;;;;26.77;16.40;;;2.50;99.90;;;;;;5051142;28;20491;-68
2022/01/14 08:05:11;;;;;;;28.20;15.80;;;2.50;99.90;;;;;;5051455;28;20955;-71
2022/01/14 08:07:44;;;;;;;23.27;15.77;;;2.60;99.90;;;;;;5051337;28;20461;-73
2022/01/14 08:10:12;;;;;;;24.10;13.33;;;2.70;99.90;;;;;;5051477;28;20535;-71
2022/01/14 08:12:42;;;;;;;26.33;14.33;;;2.70;99.90;;;;;;5051403;28;20484;-72
2022/01/14 08:15:09;;;;;;;26.87;14.37;;;2.80;99.90;;;;;;5051549;28;20453;-72
2022/01/14 08:17:37;;;;;;;25.83;14.80;;;2.80;99.90;;;;;;5051204;28;20505;-70
2022/01/14 08:20:05;;;;;;;24.63;14.93;;;2.70;99.90;;;;;;5051553;28;20480;-74
2022/01/14 08:22:32;;;;;;;22.60;13.87;;;2.80;99.90;;;;;;5050656;28;20450;-70
2022/01/14 08:25:00;;;;;;;25.37;14.70;;;2.70;99.90;;;;;;5050541;28;20499;-67
2022/01/14 08:27:27;;;;;;;19.73;13.00;;;2.80;99.90;;;;;;5050832;28;20456;-67
2022/01/14 08:29:57;;;;;;;32.47;15.77;;;2.90;99.90;;;;;;5050780;28;20484;-67
2022/01/14 08:32:24;;;;;;;24.00;15.70;;;3.00;99.90;;;;;;5050952;28;20449;-68
2022/01/14 08:34:51;;;;;;;25.67;13.90;;;3.00;99.90;;;;;;5050890;28;20516;-67
2022/01/14 08:37:18;;;;;;;27.30;15.10;;;3.00;99.90;;;;;;5050655;28;20489;-68
2022/01/14 08:39:45;;;;;;;27.77;15.13;;;2.90;99.90;;;;;;5050415;28;20467;-68
2022/01/14 08:42:13;;;;;;;31.47;16.80;;;2.90;99.90;;;;;;5050059;28;21007;-68
2022/01/14 08:44:41;;;;;;;23.63;15.63;;;3.00;99.90;;;;;;5050135;28;20797;-67
2022/01/14 08:47:10;;;;;;;22.37;14.33;;;3.10;99.90;;;;;;5050595;28;20450;-67
2022/01/14 08:49:38;;;;;;;26.73;16.40;;;3.30;99.90;;;;;;5050379;28;20538;-67
2022/01/14 08:52:05;;;;;;;22.67;15.30;;;3.50;99.90;;;;;;5049865;28;20452;-68
2022/01/14 08:54:33;;;;;;;24.23;15.03;;;3.70;99.90;;;;;;5050266;28;20449;-67
2022/01/14 08:57:02;;;;;;;26.43;17.10;;;3.90;99.90;;;;;;5049677;28;20467;-68
2022/01/14 08:59:29;;;;;;;23.07;14.60;;;3.80;99.90;;;;;;5050147;28;20862;-67
2022/01/14 09:01:56;;;;;;;20.77;13.33;;;3.70;99.90;;;;;;5049692;28;20494;-67
2022/01/14 09:04:25;;;;;;;17.87;12.93;;;3.80;99.90;;;;;;5049943;28;20445;-68
2022/01/14 09:06:52;;;;;;;26.50;15.80;;;4.00;99.90;;;;;;5050040;28;20458;-68
2022/01/14 09:09:19;;;;;;;26.30;14.53;;;4.00;99.90;;;;;;5049776;28;20452;-68
2022/01/14 09:11:47;;;;;;;22.60;14.43;;;4.10;99.90;;;;;;5049932;28;20453;-68
2022/01/14 09:14:14;;;;;;;24.27;14.70;;;4.00;99.90;;;;;;5049961;28;20573;-68
2022/01/14 09:16:41;;;;;;;22.93;13.13;;;4.10;99.90;;;;;;5050250;28;20869;-67
2022/01/14 09:19:08;;;;;;;22.77;13.20;;;4.10;99.90;;;;;;5049611;28;20517;-68
2022/01/14 09:21:36;;;;;;;20.10;10.87;;;4.00;99.90;;;;;;5051744;28;20814;-67
2022/01/14 09:24:04;;;;;;;13.80;8.90;;;3.90;99.90;;;;;;5053059;28;20597;-68
2022/01/14 09:26:32;;;;;;;14.83;8.70;;;4.00;99.90;;;;;;5049988;28;20455;-68
2022/01/14 09:29:00;;;;;;;10.30;6.50;;;4.00;99.90;;;;;;5049745;28;20517;-67
2022/01/14 09:31:27;;;;;;;11.30;5.80;;;3.90;99.90;;;;;;5049483;28;20458;-68
2022/01/14 09:33:54;;;;;;;10.40;6.10;;;3.80;99.90;;;;;;5049635;28;20458;-67
2022/01/14 09:36:21;;;;;;;14.27;6.97;;;3.80;99.90;;;;;;5049638;28;20452;-68
2022/01/14 09:38:50;;;;;;;12.90;5.80;;;4.00;99.90;;;;;;5049407;28;20986;-66
2022/01/14 09:41:18;;;;;;;9.07;5.63;;;4.00;99.90;;;;;;5049631;28;20453;-66
2022/01/14 09:43:46;;;;;;;10.30;5.70;;;4.10;99.90;;;;;;5049673;28;20847;-68
2022/01/14 09:46:14;;;;;;;9.90;6.60;;;4.20;99.90;;;;;;5049297;28;20454;-69
2022/01/14 09:48:41;;;;;;;17.63;6.20;;;4.20;99.90;;;;;;5049333;28;20458;-68
2022/01/14 09:51:09;;;;;;;10.20;6.20;;;4.40;99.90;;;;;;5049293;28;20455;-68
2022/01/14 09:53:36;;;;;;;12.57;6.90;;;4.50;99.90;;;;;;5049293;28;20458;-69
2022/01/14 09:56:05;;;;;;;9.67;5.20;;;4.60;99.90;;;;;;5049198;28;20453;-67
2022/01/14 09:58:36;;;;;;;9.47;5.70;;;4.50;99.90;;;;;;5048956;28;21013;-68
2022/01/14 10:01:09;;;;;;;11.43;6.50;;;4.50;99.90;;;;;;5048784;28;20576;-67
2022/01/14 10:03:49;;;;;;;10.50;5.03;;;4.30;99.90;;;;;;5049445;28;20933;-67
2022/01/14 10:06:37;;;;;;;11.70;6.67;;;4.10;99.90;;;;;;5049285;28;20551;-68
2022/01/14 10:09:08;;;;;;;12.53;4.80;;;4.30;99.90;;;;;;5051274;28;20499;-68
2022/01/14 10:11:38;;;;;;;12.70;8.83;;;4.30;99.90;;;;;;5053568;28;20561;-68
2022/01/14 10:14:07;;;;;;;11.87;7.37;;;4.60;99.90;;;;;;5053532;28;20453;-76
2022/01/14 10:16:35;;;;;;;8.13;4.83;;;4.40;99.90;;;;;;5053081;28;20474;-74
2022/01/14 10:19:02;;;;;;;10.13;5.63;;;4.20;99.90;;;;;;5053635;28;20806;-67
2022/01/14 10:21:33;;;;;;;8.93;5.47;;;3.80;99.90;;;;;;5053448;28;20457;-68
2022/01/14 10:24:01;;;;;;;10.90;5.93;;;3.90;99.90;;;;;;5053227;28;20934;-67
2022/01/14 10:26:30;;;;;;;10.37;6.10;;;4.00;99.90;;;;;;5053075;28;20580;-67
2022/01/14 10:29:05;;;;;;;11.17;6.63;;;4.40;99.90;;;;;;5053093;28;20452;-65
2022/01/14 10:31:34;;;;;;;9.83;5.10;;;4.70;99.90;;;;;;5052976;28;20508;-65
2022/01/14 10:34:14;;;;;;;10.67;6.53;;;4.80;99.90;;;;;;5052921;28;21031;-65
2022/01/14 10:36:43;;;;;;;10.90;7.10;;;4.70;99.90;;;;;;5053165;28;20473;-64
2022/01/14 10:39:22;;;;;;;11.43;6.90;;;4.90;99.90;;;;;;5052983;28;20481;-65
2022/01/14 10:41:49;;;;;;;9.83;6.57;;;5.10;99.90;;;;;;5052340;28;20452;-65
2022/01/14 10:44:29;;;;;;;12.67;7.07;;;4.80;99.90;;;;;;5052615;28;20451;-65
2022/01/14 10:47:13;;;;;;;7.70;5.13;;;4.80;99.90;;;;;;5052801;28;20471;-67
2022/01/14 10:49:42;;;;;;;8.77;5.80;;;4.80;99.90;;;;;;5053415;28;20760;-64
2022/01/14 10:52:14;;;;;;;10.93;6.13;;;4.80;99.90;;;;;;5069971;28;21026;-65
2022/01/14 10:54:45;;;;;;;9.50;5.07;;;4.70;99.90;;;;;;5072368;28;20457;-65
2022/01/14 10:57:13;;;;;;;12.03;6.57;;;4.80;99.90;;;;;;5071269;28;20477;-65
2022/01/14 10:59:42;;;;;;;11.63;6.07;;;5.10;99.90;;;;;;5070765;28;20488;-65
2022/01/14 11:02:37;;;;;;;11.57;6.27;;;5.20;99.90;;;;;;5057108;28;20883;-65
2022/01/14 11:05:07;;;;;;;11.33;6.57;;;5.70;99.90;;;;;;5052275;28;20453;-65
2022/01/14 11:07:34;;;;;;;9.70;4.77;;;6.30;99.90;;;;;;5051840;28;21012;-65
2022/01/14 11:10:01;;;;;;;9.13;5.93;;;6.50;99.90;;;;;;5052453;28;20447;-66
2022/01/14 11:12:30;;;;;;;11.53;4.87;;;6.90;99.90;;;;;;5051992;28;20449;-64
2022/01/14 11:14:58;;;;;;;11.70;6.47;;;7.00;99.90;;;;;;5052154;28;20543;-65
2022/01/14 11:17:25;;;;;;;11.10;5.67;;;7.30;99.90;;;;;;5052175;28;20474;-65
2022/01/14 11:19:53;;;;;;;8.57;5.50;;;7.50;99.90;;;;;;5051202;28;20843;-65
2022/01/14 11:25:05;;;;;;;7.30;4.00;;;7.60;99.90;;;;;;5052012;28;20434;-65
2022/01/14 11:27:33;;;;;;;10.00;4.93;;;7.20;99.90;;;;;;5051442;28;20867;-65
2022/01/14 11:30:01;;;;;;;9.07;6.03;;;7.30;99.90;;;;;;5051870;28;20466;-65
2022/01/14 11:32:29;;;;;;;8.67;4.73;;;7.40;99.90;;;;;;5051661;28;20447;-64
2022/01/14 11:34:56;;;;;;;7.77;5.17;;;7.60;99.90;;;;;;5051433;28;20877;-68
2022/01/14 11:37:41;;;;;;;7.73;4.83;;;7.60;99.90;;;;;;5051635;28;20898;-64
2022/01/14 11:40:12;;;;;;;10.63;6.43;;;8.10;99.90;;;;;;5051476;28;20480;-64
2022/01/14 11:42:41;;;;;;;8.93;6.10;;;8.70;99.90;;;;;;5051009;28;20536;-65
2022/01/14 11:45:11;;;;;;;14.30;6.17;;;9.20;99.90;;;;;;5051544;28;20520;-65
2022/01/14 11:47:48;;;;;;;12.93;6.67;;;9.10;98.40;;;;;;5051847;28;20468;-64
2022/01/14 11:50:43;;;;;;;10.70;5.57;;;9.30;98.70;;;;;;5051381;28;20484;-64
2022/01/14 11:53:38;;;;;;;9.90;5.40;;;9.20;97.50;;;;;;5051387;28;20442;-64
2022/01/14 11:56:08;;;;;;;9.57;6.40;;;9.20;97.00;;;;;;5051366;28;20464;-64
2022/01/14 11:58:35;;;;;;;9.50;6.03;;;9.20;96.70;;;;;;5051159;28;20668;-65
2022/01/14 12:01:05;;;;;;;11.60;6.97;;;9.30;97.00;;;;;;5050822;28;20493;-71
2022/01/14 12:03:32;;;;;;;12.03;6.90;;;9.40;97.10;;;;;;5051256;28;20540;-69
2022/01/14 12:06:02;;;;;;;12.70;8.47;;;9.60;96.00;;;;;;5051045;28;20462;-73
2022/01/14 12:08:31;;;;;;;12.57;6.50;;;9.60;95.50;;;;;;5051353;28;20477;-75
2022/01/14 12:11:20;;;;;;;12.40;6.70;;;9.60;95.20;;;;;;5051177;28;20474;-65
2022/01/14 12:14:01;;;;;;;12.30;6.83;;;9.50;95.40;;;;;;5050763;28;20818;-67
2022/01/14 12:16:49;;;;;;;9.80;6.10;;;9.60;95.30;;;;;;5050904;28;20548;-65
2022/01/14 12:19:23;;;;;;;9.17;5.27;;;9.60;94.60;;;;;;5050656;28;21085;-65
2022/01/14 12:22:00;;;;;;;7.77;4.77;;;9.50;94.80;;;;;;5051086;28;20457;-65
2022/01/14 12:24:53;;;;;;;8.30;5.10;;;9.40;95.00;;;;;;5050562;28;20855;-66
2022/01/14 12:27:46;;;;;;;9.10;5.20;;;9.20;95.10;;;;;;5050391;28;20560;-66
2022/01/14 12:30:28;;;;;;;9.63;6.07;;;9.50;95.10;;;;;;5050788;28;20470;-66
2022/01/14 12:32:57;;;;;;;7.27;4.83;;;9.90;94.50;;;;;;5049446;28;20512;-66
2022/01/14 12:35:33;;;;;;;7.60;4.60;;;9.90;94.20;;;;;;5050617;28;20583;-65
2022/01/14 12:38:01;;;;;;;7.53;4.77;;;9.60;94.00;;;;;;5050573;28;20467;-66
2022/01/14 12:40:36;;;;;;;7.77;4.67;;;9.50;95.00;;;;;;5050874;28;20812;-66
2022/01/14 12:43:06;;;;;;;10.47;5.70;;;10.00;94.60;;;;;;5050131;28;20822;-65
2022/01/14 12:45:38;;;;;;;8.90;6.03;;;10.70;92.90;;;;;;5050374;28;20811;-65
2022/01/14 12:48:29;;;;;;;9.57;4.90;;;10.70;92.10;;;;;;5050666;28;20457;-66
2022/01/14 12:51:18;;;;;;;8.80;4.30;;;10.50;92.00;;;;;;5050005;28;20469;-68
2022/01/14 12:53:54;;;;;;;7.57;4.70;;;10.10;92.60;;;;;;5047000;28;20541;-67
2022/01/14 12:56:23;;;;;;;7.83;4.70;;;10.40;93.00;;;;;;5050526;28;20453;-67
2022/01/14 12:58:56;;;;;;;8.50;4.53;;;10.40;92.10;;;;;;5050412;28;20493;-67
2022/01/14 13:01:32;;;;;;;8.43;4.43;;;10.00;92.80;;;;;;5049846;28;20555;-67
2022/01/14 13:04:03;;;;;;;7.63;4.53;;;9.90;93.90;;;;;;5050211;28;20959;-67
2022/01/14 13:06:41;;;;;;;7.13;3.50;;;10.30;93.20;;;;;;5050325;28;20479;-66
2022/01/14 13:09:09;;;;;;;6.77;3.90;;;10.40;93.20;;;;;;5050130;28;20546;-67